createdAt,value
2022-11-16T00:00:08.333Z,106.50
2022-11-16T00:01:08.275Z,83.50
2022-11-16T00:02:08.276Z,101.50
2022-11-16T00:03:08.185Z,133.80
2022-11-16T00:04:08.156Z,116.90
2022-11-16T00:05:08.095Z,106.60
2022-11-16T00:06:08.065Z,98.40
2022-11-16T00:07:08.060Z,93.60
2022-11-16T00:08:07.957Z,115.10
2022-11-16T00:09:07.925Z,117.30
2022-11-16T00:10:07.867Z,125.90
2022-11-16T00:11:07.845Z,105.10
2022-11-16T00:12:07.775Z,93.30
2022-11-16T00:13:07.746Z,111.00
2022-11-16T00:14:07.700Z,107.20
2022-11-16T00:15:07.648Z,81.40
2022-11-16T00:16:07.641Z,57.60
2022-11-16T00:17:07.597Z,51.90
2022-11-16T00:18:07.528Z,49.90
2022-11-16T00:19:07.489Z,45.70
2022-11-16T00:20:07.460Z,38.90
2022-11-16T00:21:07.431Z,32.10
2022-11-16T00:22:07.367Z,33.00
2022-11-16T00:23:07.318Z,32.20
2022-11-16T00:24:07.281Z,31.10
2022-11-16T00:25:07.236Z,32.30
2022-11-16T00:26:07.169Z,31.10
2022-11-16T00:27:07.149Z,33.60
2022-11-16T00:28:07.099Z,34.70
2022-11-16T00:29:07.060Z,33.80
2022-11-16T00:30:06.999Z,32.10
2022-11-16T00:31:06.971Z,32.40
2022-11-16T00:32:06.923Z,32.90
2022-11-16T00:33:06.901Z,35.30
2022-11-16T00:34:06.849Z,33.60
2022-11-16T00:35:06.810Z,31.50
2022-11-16T00:36:06.782Z,32.60
2022-11-16T00:37:06.742Z,39.00
2022-11-16T00:38:06.731Z,35.40
2022-11-16T00:39:06.701Z,42.80
2022-11-16T00:40:06.629Z,40.60
2022-11-16T00:41:06.602Z,37.20
2022-11-16T00:42:06.540Z,35.70
2022-11-16T00:43:06.513Z,41.00
2022-11-16T00:44:06.493Z,46.00
2022-11-16T00:45:06.434Z,41.60
2022-11-16T00:46:06.402Z,46.10
2022-11-16T00:47:06.354Z,50.00
2022-11-16T00:48:06.323Z,52.50
2022-11-16T00:49:06.301Z,39.80
2022-11-16T00:50:06.241Z,43.80
2022-11-16T00:51:06.193Z,45.90
2022-11-16T00:52:06.154Z,64.80
2022-11-16T00:53:06.125Z,76.10
2022-11-16T00:54:06.094Z,71.90
2022-11-16T00:55:06.055Z,90.00
2022-11-16T00:56:05.992Z,88.80
2022-11-16T00:57:05.959Z,83.70
2022-11-16T00:58:05.916Z,70.00
2022-11-16T00:59:05.887Z,86.90
2022-11-16T01:00:05.866Z,71.70
2022-11-16T01:01:05.838Z,63.90
2022-11-16T01:02:05.756Z,69.20
2022-11-16T01:03:05.726Z,62.60
2022-11-16T01:04:05.686Z,57.90
2022-11-16T01:05:05.686Z,64.10
2022-11-16T01:06:05.624Z,56.10
2022-11-16T01:07:05.594Z,55.60
2022-11-16T01:08:05.526Z,56.50
2022-11-16T01:09:05.488Z,59.80
2022-11-16T01:10:05.436Z,58.10
2022-11-16T01:11:05.408Z,57.90
2022-11-16T01:12:05.366Z,79.50
2022-11-16T01:13:05.308Z,79.90
2022-11-16T01:14:05.277Z,79.00
2022-11-16T01:15:05.239Z,88.20
2022-11-16T01:16:05.209Z,86.10
2022-11-16T01:17:05.148Z,103.10
2022-11-16T01:18:05.107Z,92.50
2022-11-16T01:19:05.082Z,92.10
2022-11-16T01:20:05.010Z,106.70
2022-11-16T01:21:05.006Z,116.20
2022-11-16T01:22:04.941Z,103.90
2022-11-16T01:23:04.919Z,127.50
2022-11-16T01:24:04.851Z,95.90
2022-11-16T01:25:04.822Z,103.50
2022-11-16T01:26:04.797Z,92.60
2022-11-16T01:27:04.721Z,88.00
2022-11-16T01:28:04.662Z,73.30
2022-11-16T01:29:04.598Z,76.80
2022-11-16T01:30:04.569Z,73.70
2022-11-16T01:31:04.533Z,70.10
2022-11-16T01:32:04.450Z,67.40
2022-11-16T01:33:04.402Z,72.80
2022-11-16T01:34:04.352Z,67.20
2022-11-16T01:35:04.301Z,62.60
2022-11-16T01:36:04.260Z,69.80
2022-11-16T01:37:04.222Z,69.90
2022-11-16T01:38:04.160Z,58.20
2022-11-16T01:39:04.146Z,54.40
2022-11-16T01:40:04.075Z,64.60
2022-11-16T01:41:04.033Z,53.30
2022-11-16T01:42:03.994Z,60.00
2022-11-16T01:43:03.935Z,52.70
2022-11-16T01:44:03.885Z,47.30
2022-11-16T01:45:03.846Z,49.80
2022-11-16T01:46:03.798Z,43.40
2022-11-16T01:47:03.744Z,47.70
2022-11-16T01:48:10.716Z,47.20
2022-11-16T01:49:03.621Z,48.70
2022-11-16T01:50:03.555Z,41.30
2022-11-16T01:51:03.527Z,44.10
2022-11-16T01:52:03.466Z,45.80
2022-11-16T01:53:03.448Z,62.20
2022-11-16T01:54:03.415Z,57.00
2022-11-16T01:55:03.347Z,54.60
2022-11-16T01:56:03.307Z,65.00
2022-11-16T01:57:03.277Z,58.10
2022-11-16T01:58:03.225Z,61.40
2022-11-16T01:59:03.208Z,51.60
2022-11-16T02:00:03.138Z,65.20
2022-11-16T02:01:03.112Z,49.20
2022-11-16T02:02:03.058Z,48.50
2022-11-16T02:03:03.019Z,46.50
2022-11-16T02:04:02.989Z,55.20
2022-11-16T02:05:02.918Z,68.80
2022-11-16T02:06:02.869Z,61.40
2022-11-16T02:07:02.864Z,53.60
2022-11-16T02:08:02.795Z,52.20
2022-11-16T02:09:02.770Z,60.00
2022-11-16T02:10:02.703Z,45.50
2022-11-16T02:11:02.689Z,53.10
2022-11-16T02:12:02.611Z,47.70
2022-11-16T02:13:02.591Z,48.90
2022-11-16T02:14:02.540Z,53.30
2022-11-16T02:15:02.501Z,61.80
2022-11-16T02:16:02.450Z,52.80
2022-11-16T02:17:02.411Z,50.10
2022-11-16T02:18:02.352Z,49.50
2022-11-16T02:19:02.301Z,45.40
2022-11-16T02:20:02.290Z,44.00
2022-11-16T02:21:02.235Z,46.40
2022-11-16T02:22:02.182Z,48.20
2022-11-16T02:23:02.142Z,43.50
2022-11-16T02:24:02.093Z,44.90
2022-11-16T02:25:02.051Z,47.40
2022-11-16T02:26:02.023Z,61.80
2022-11-16T02:27:01.975Z,52.70
2022-11-16T02:28:01.919Z,56.40
2022-11-16T02:29:01.883Z,55.30
2022-11-16T02:30:01.851Z,68.70
2022-11-16T02:31:01.813Z,88.20
2022-11-16T02:32:01.745Z,65.00
2022-11-16T02:33:01.717Z,77.20
2022-11-16T02:34:01.672Z,72.60
2022-11-16T02:35:01.638Z,74.40
2022-11-16T02:36:01.594Z,75.20
2022-11-16T02:37:01.544Z,60.30
2022-11-16T02:38:01.474Z,70.50
2022-11-16T02:39:01.448Z,77.50
2022-11-16T02:40:01.391Z,77.90
2022-11-16T02:41:01.355Z,76.50
2022-11-16T02:42:01.299Z,76.20
2022-11-16T02:43:01.260Z,72.70
2022-11-16T02:44:01.211Z,85.50
2022-11-16T02:45:01.169Z,61.30
2022-11-16T02:46:01.126Z,66.50
2022-11-16T02:47:01.090Z,98.20
2022-11-16T02:48:01.029Z,85.40
2022-11-16T02:49:00.989Z,68.30
2022-11-16T02:50:00.937Z,60.90
2022-11-16T02:51:00.902Z,56.20
2022-11-16T02:52:00.848Z,56.90
2022-11-16T02:53:00.793Z,50.80
2022-11-16T02:54:00.743Z,51.00
2022-11-16T02:55:00.702Z,51.10
2022-11-16T02:56:00.658Z,48.90
2022-11-16T02:57:00.601Z,52.00
2022-11-16T02:58:00.554Z,50.40
2022-11-16T02:59:00.512Z,52.90
2022-11-16T03:00:00.454Z,48.00
2022-11-16T03:01:00.490Z,41.80
2022-11-16T03:02:00.352Z,43.40
2022-11-16T03:03:00.313Z,40.00
2022-11-16T03:04:00.263Z,39.00
2022-11-16T03:05:00.226Z,41.50
2022-11-16T03:06:00.173Z,40.60
2022-11-16T03:07:00.224Z,41.10
2022-11-16T03:08:00.074Z,41.60
2022-11-16T03:09:00.043Z,43.30
2022-11-16T03:09:59.994Z,44.80
2022-11-16T03:10:59.956Z,46.00
2022-11-16T03:11:59.913Z,44.60
2022-11-16T03:12:59.864Z,44.90
2022-11-16T03:13:59.814Z,42.90
2022-11-16T03:14:59.787Z,39.00
2022-11-16T03:15:59.737Z,39.00
2022-11-16T03:16:59.704Z,38.60
2022-11-16T03:17:59.652Z,37.90
2022-11-16T03:18:59.585Z,37.10
2022-11-16T03:19:59.536Z,37.20
2022-11-16T03:20:59.495Z,35.80
2022-11-16T03:21:59.435Z,34.90
2022-11-16T03:22:59.406Z,31.60
2022-11-16T03:23:59.338Z,32.90
2022-11-16T03:24:59.296Z,32.80
2022-11-16T03:25:59.237Z,33.60
2022-11-16T03:26:59.187Z,33.00
2022-11-16T03:27:59.148Z,32.60
2022-11-16T03:28:59.086Z,32.50
2022-11-16T03:29:59.038Z,32.40
2022-11-16T03:30:58.987Z,31.50
2022-11-16T03:31:58.928Z,31.90
2022-11-16T03:32:58.905Z,32.50
2022-11-16T03:33:58.829Z,30.70
2022-11-16T03:34:58.778Z,31.20
2022-11-16T03:35:58.726Z,32.20
2022-11-16T03:36:58.686Z,30.60
2022-11-16T03:37:58.626Z,28.70
2022-11-16T03:38:58.590Z,30.00
2022-11-16T03:39:58.519Z,30.60
2022-11-16T03:40:58.478Z,30.20
2022-11-16T03:41:58.419Z,31.50
2022-11-16T03:42:58.370Z,31.00
2022-11-16T03:43:58.343Z,30.00
2022-11-16T03:44:58.283Z,32.70
2022-11-16T03:45:58.244Z,32.10
2022-11-16T03:46:58.200Z,35.30
2022-11-16T03:47:58.184Z,34.50
2022-11-16T03:48:58.111Z,33.70
2022-11-16T03:49:58.081Z,32.30
2022-11-16T03:50:58.015Z,31.20
2022-11-16T03:51:57.961Z,33.60
2022-11-16T03:52:57.953Z,32.50
2022-11-16T03:53:57.872Z,35.00
2022-11-16T03:54:57.842Z,32.30
2022-11-16T03:55:57.786Z,32.60
2022-11-16T03:56:57.743Z,35.10
2022-11-16T03:57:57.693Z,32.40
2022-11-16T03:58:57.653Z,32.90
2022-11-16T03:59:57.623Z,30.50
2022-11-16T04:00:57.668Z,31.00
2022-11-16T04:01:57.524Z,31.00
2022-11-16T04:02:57.475Z,34.00
2022-11-16T04:03:57.427Z,29.80
2022-11-16T04:04:57.382Z,29.80
2022-11-16T04:05:57.350Z,32.90
2022-11-16T04:06:57.326Z,34.20
2022-11-16T04:07:57.234Z,37.70
2022-11-16T04:08:57.174Z,34.20
2022-11-16T04:09:57.134Z,39.90
2022-11-16T04:10:57.105Z,38.10
2022-11-16T04:11:57.035Z,36.30
2022-11-16T04:12:56.976Z,40.30
2022-11-16T04:13:56.927Z,32.10
2022-11-16T04:14:56.874Z,32.50
2022-11-16T04:15:56.826Z,31.90
2022-11-16T04:16:56.791Z,28.00
2022-11-16T04:17:56.728Z,30.70
2022-11-16T04:18:56.669Z,32.40
2022-11-16T04:19:58.344Z,33.20
2022-11-16T04:20:56.574Z,37.70
2022-11-16T04:21:56.549Z,34.40
2022-11-16T04:22:56.478Z,35.70
2022-11-16T04:23:56.440Z,37.20
2022-11-16T04:24:56.387Z,36.40
2022-11-16T04:25:56.338Z,36.80
2022-11-16T04:26:56.290Z,35.50
2022-11-16T04:27:56.261Z,41.40
2022-11-16T04:28:56.189Z,42.10
2022-11-16T04:29:56.149Z,45.10
2022-11-16T04:30:56.089Z,41.60
2022-11-16T04:31:56.047Z,47.00
2022-11-16T04:32:56.010Z,45.10
2022-11-16T04:33:55.951Z,44.00
2022-11-16T04:34:55.890Z,45.70
2022-11-16T04:35:55.851Z,43.30
2022-11-16T04:36:55.789Z,46.40
2022-11-16T04:37:55.760Z,49.10
2022-11-16T04:38:55.691Z,48.40
2022-11-16T04:39:55.651Z,44.30
2022-11-16T04:40:55.601Z,47.40
2022-11-16T04:41:55.563Z,49.50
2022-11-16T04:42:55.512Z,45.10
2022-11-16T04:43:55.484Z,47.60
2022-11-16T04:44:55.413Z,47.00
2022-11-16T04:45:55.370Z,46.00
2022-11-16T04:46:55.312Z,45.80
2022-11-16T04:47:55.265Z,47.40
2022-11-16T04:48:55.264Z,49.20
2022-11-16T04:49:55.165Z,50.40
2022-11-16T04:50:55.104Z,49.90
2022-11-16T04:51:55.063Z,45.10
2022-11-16T04:52:55.004Z,49.50
2022-11-16T04:53:54.966Z,51.80
2022-11-16T04:54:54.924Z,50.70
2022-11-16T04:56:00.479Z,50.80
2022-11-16T04:56:55.814Z,57.90
2022-11-16T04:57:54.774Z,54.50
2022-11-16T04:58:54.723Z,54.80
2022-11-16T04:59:54.695Z,55.20
2022-11-16T05:00:54.663Z,54.00
2022-11-16T05:01:54.586Z,55.50
2022-11-16T05:02:59.721Z,52.60
2022-11-16T05:03:55.486Z,53.50
2022-11-16T05:04:54.434Z,47.20
2022-11-16T05:05:54.387Z,50.20
2022-11-16T05:06:54.373Z,48.40
2022-11-16T05:07:54.280Z,53.10
2022-11-16T05:08:54.227Z,54.90
2022-11-16T05:09:54.186Z,50.40
2022-11-16T05:10:54.144Z,53.10
2022-11-16T05:11:54.086Z,54.50
2022-11-16T05:12:54.027Z,49.90
2022-11-16T05:13:53.980Z,52.30
2022-11-16T05:14:53.932Z,51.50
2022-11-16T05:15:53.896Z,52.50
2022-11-16T05:16:53.819Z,51.50
2022-11-16T05:17:53.771Z,55.20
2022-11-16T05:18:53.713Z,56.40
2022-11-16T05:19:53.670Z,53.80
2022-11-16T05:20:53.611Z,62.00
2022-11-16T05:21:53.584Z,63.10
2022-11-16T05:22:53.518Z,60.90
2022-11-16T05:23:53.471Z,77.50
2022-11-16T05:24:53.421Z,69.60
2022-11-16T05:25:53.381Z,76.20
2022-11-16T05:26:53.351Z,81.70
2022-11-16T05:27:53.293Z,76.10
2022-11-16T05:28:53.242Z,87.70
2022-11-16T05:29:53.192Z,84.30
2022-11-16T05:30:53.142Z,87.00
2022-11-16T05:31:53.096Z,77.90
2022-11-16T05:32:53.053Z,89.80
2022-11-16T05:33:53.009Z,116.40
2022-11-16T05:34:52.953Z,114.80
2022-11-16T05:35:52.918Z,131.20
2022-11-16T05:36:52.860Z,138.90
2022-11-16T05:37:52.843Z,148.30
2022-11-16T05:38:56.052Z,169.00
2022-11-16T05:39:52.736Z,163.80
2022-11-16T05:40:52.667Z,172.10
2022-11-16T05:41:52.614Z,176.10
2022-11-16T05:42:52.565Z,182.00
2022-11-16T05:43:52.529Z,201.20
2022-11-16T05:44:52.469Z,189.90
2022-11-16T05:45:52.424Z,193.90
2022-11-16T05:46:52.367Z,203.70
2022-11-16T05:47:52.325Z,193.40
2022-11-16T05:48:52.279Z,209.10
2022-11-16T05:49:52.226Z,198.60
2022-11-16T05:50:52.180Z,218.00
2022-11-16T05:51:52.140Z,196.30
2022-11-16T05:52:52.093Z,205.60
2022-11-16T05:53:52.057Z,204.00
2022-11-16T05:54:51.997Z,209.90
2022-11-16T05:55:52.008Z,216.80
2022-11-16T05:56:51.908Z,225.70
2022-11-16T05:57:51.859Z,221.00
2022-11-16T05:58:51.798Z,231.50
2022-11-16T05:59:51.768Z,240.20
2022-11-16T06:00:51.699Z,240.40
2022-11-16T06:01:51.651Z,244.30
2022-11-16T06:02:51.631Z,237.30
2022-11-16T06:03:51.549Z,235.90
2022-11-16T06:04:51.509Z,266.20
2022-11-16T06:05:51.452Z,247.80
2022-11-16T06:06:51.436Z,255.20
2022-11-16T06:07:51.350Z,244.80
2022-11-16T06:08:51.291Z,259.40
2022-11-16T06:09:51.240Z,270.00
2022-11-16T06:10:51.201Z,230.70
2022-11-16T06:11:51.141Z,252.10
2022-11-16T06:12:51.093Z,241.40
2022-11-16T06:13:51.051Z,259.50
2022-11-16T06:14:51.003Z,270.20
2022-11-16T06:15:56.586Z,241.00
2022-11-16T06:16:50.910Z,249.00
2022-11-16T06:17:50.861Z,252.10
2022-11-16T06:18:50.820Z,251.10
2022-11-16T06:19:50.784Z,231.90
2022-11-16T06:20:50.753Z,244.30
2022-11-16T06:21:50.683Z,257.80
2022-11-16T06:22:50.633Z,266.80
2022-11-16T06:23:50.595Z,269.90
2022-11-16T06:24:50.542Z,247.50
2022-11-16T06:25:50.503Z,248.20
2022-11-16T06:26:50.463Z,255.20
2022-11-16T06:27:50.405Z,253.30
2022-11-16T06:28:50.363Z,248.10
2022-11-16T06:29:50.314Z,254.80
2022-11-16T06:30:50.267Z,246.60
2022-11-16T06:31:50.237Z,241.30
2022-11-16T06:32:50.214Z,240.10
2022-11-16T06:33:50.135Z,230.00
2022-11-16T06:34:50.086Z,243.50
2022-11-16T06:35:50.045Z,253.70
2022-11-16T06:36:49.998Z,239.90
2022-11-16T06:37:49.965Z,257.20
2022-11-16T06:38:49.907Z,243.10
2022-11-16T06:39:49.865Z,222.80
2022-11-16T06:40:49.810Z,226.00
2022-11-16T06:41:49.768Z,222.60
2022-11-16T06:42:49.717Z,225.90
2022-11-16T06:43:49.656Z,227.90
2022-11-16T06:44:49.596Z,225.70
2022-11-16T06:45:49.547Z,221.20
2022-11-16T06:46:49.610Z,225.00
2022-11-16T06:47:49.432Z,242.30
2022-11-16T06:48:49.378Z,239.90
2022-11-16T06:49:49.318Z,235.80
2022-11-16T06:50:49.256Z,254.30
2022-11-16T06:51:49.198Z,239.10
2022-11-16T06:52:49.140Z,235.30
2022-11-16T06:53:49.111Z,215.50
2022-11-16T06:54:49.038Z,237.80
2022-11-16T06:55:48.989Z,213.40
2022-11-16T06:56:48.921Z,213.50
2022-11-16T06:57:48.878Z,206.60
2022-11-16T06:58:53.069Z,208.60
2022-11-16T06:59:48.791Z,217.20
2022-11-16T07:00:48.731Z,208.90
2022-11-16T07:01:48.724Z,204.30
2022-11-16T07:02:48.631Z,206.00
2022-11-16T07:03:48.590Z,227.40
2022-11-16T07:04:48.541Z,211.80
2022-11-16T07:05:48.490Z,215.70
2022-11-16T07:06:48.458Z,223.60
2022-11-16T07:07:48.397Z,207.20
2022-11-16T07:08:48.351Z,200.40
2022-11-16T07:09:48.333Z,220.30
2022-11-16T07:10:48.251Z,231.60
2022-11-16T07:11:48.207Z,219.00
2022-11-16T07:12:48.154Z,213.10
2022-11-16T07:13:48.113Z,217.70
2022-11-16T07:14:48.062Z,206.20
2022-11-16T07:15:48.026Z,218.40
2022-11-16T07:16:47.964Z,243.30
2022-11-16T07:17:47.926Z,225.70
2022-11-16T07:18:47.871Z,225.40
2022-11-16T07:19:47.824Z,214.50
2022-11-16T07:20:47.785Z,214.60
2022-11-16T07:21:47.734Z,214.00
2022-11-16T07:22:47.682Z,220.20
2022-11-16T07:23:47.634Z,225.40
2022-11-16T07:24:47.585Z,210.40
2022-11-16T07:25:47.556Z,216.00
2022-11-16T07:26:47.496Z,219.20
2022-11-16T07:27:47.456Z,209.00
2022-11-16T07:28:48.619Z,212.80
2022-11-16T07:29:47.357Z,228.20
2022-11-16T07:30:47.317Z,206.80
2022-11-16T07:31:47.258Z,219.10
2022-11-16T07:32:47.195Z,231.50
2022-11-16T07:33:47.147Z,223.20
2022-11-16T07:34:47.088Z,215.90
2022-11-16T07:35:47.056Z,221.10
2022-11-16T07:36:47.000Z,217.90
2022-11-16T07:37:46.949Z,205.20
2022-11-16T07:38:46.901Z,186.80
2022-11-16T07:39:46.858Z,221.80
2022-11-16T07:40:46.830Z,214.10
2022-11-16T07:41:46.768Z,194.30
2022-11-16T07:42:46.717Z,191.00
2022-11-16T07:43:52.566Z,184.80
2022-11-16T07:44:47.619Z,183.10
2022-11-16T07:45:46.580Z,173.80
2022-11-16T07:46:48.123Z,172.10
2022-11-16T07:47:46.489Z,181.40
2022-11-16T07:48:53.434Z,183.70
2022-11-16T07:49:46.386Z,180.60
2022-11-16T07:50:46.334Z,169.00
2022-11-16T07:51:46.306Z,175.10
2022-11-16T07:52:46.225Z,170.90
2022-11-16T07:53:46.189Z,177.10
2022-11-16T07:54:46.124Z,182.00
2022-11-16T07:55:46.076Z,191.60
2022-11-16T07:56:46.044Z,175.20
2022-11-16T07:57:49.090Z,196.10
2022-11-16T07:58:46.909Z,178.30
2022-11-16T07:59:45.860Z,192.40
2022-11-16T08:00:45.798Z,205.80
2022-11-16T08:01:45.836Z,204.30
2022-11-16T08:02:45.698Z,199.60
2022-11-16T08:03:45.636Z,196.00
2022-11-16T08:04:45.578Z,217.30
2022-11-16T08:05:45.527Z,205.10
2022-11-16T08:06:45.469Z,194.60
2022-11-16T08:07:45.437Z,172.80
2022-11-16T08:08:45.367Z,172.50
2022-11-16T08:09:45.415Z,168.00
2022-11-16T08:10:45.255Z,184.90
2022-11-16T08:11:45.201Z,181.80
2022-11-16T08:12:45.169Z,193.00
2022-11-16T08:13:45.091Z,193.00
2022-11-16T08:14:45.047Z,173.10
2022-11-16T08:15:44.991Z,173.90
2022-11-16T08:16:44.929Z,182.90
2022-11-16T08:17:44.894Z,172.30
2022-11-16T08:18:44.852Z,190.60
2022-11-16T08:19:44.780Z,182.00
2022-11-16T08:20:44.722Z,172.50
2022-11-16T08:21:44.672Z,168.20
2022-11-16T08:22:44.614Z,158.70
2022-11-16T08:23:44.570Z,167.20
2022-11-16T08:24:44.494Z,148.40
2022-11-16T08:25:44.431Z,153.10
2022-11-16T08:26:44.379Z,143.40
2022-11-16T08:27:44.304Z,166.10
2022-11-16T08:28:44.275Z,179.30
2022-11-16T08:29:44.222Z,170.00
2022-11-16T08:30:44.953Z,170.80
2022-11-16T08:31:44.084Z,193.10
2022-11-16T08:32:44.034Z,187.10
2022-11-16T08:33:43.992Z,186.40
2022-11-16T08:34:43.925Z,188.50
2022-11-16T08:35:43.877Z,175.30
2022-11-16T08:36:43.815Z,192.60
2022-11-16T08:37:43.761Z,179.60
2022-11-16T08:38:43.725Z,180.30
2022-11-16T08:39:43.675Z,167.80
2022-11-16T08:40:43.616Z,165.90
2022-11-16T08:41:43.549Z,182.10
2022-11-16T08:42:43.992Z,167.30
2022-11-16T08:43:43.449Z,159.60
2022-11-16T08:44:43.407Z,152.00
2022-11-16T08:45:43.340Z,146.60
2022-11-16T08:46:43.279Z,149.40
2022-11-16T08:47:43.227Z,151.10
2022-11-16T08:48:43.187Z,150.90
2022-11-16T08:49:48.200Z,156.00
2022-11-16T08:51:15.500Z,162.80
2022-11-16T08:51:44.026Z,153.70
2022-11-16T08:52:42.979Z,134.90
2022-11-16T08:53:42.927Z,144.90
2022-11-16T08:54:42.860Z,149.90
2022-11-16T08:55:42.817Z,133.70
2022-11-16T08:56:42.756Z,115.80
2022-11-16T08:57:42.707Z,112.70
2022-11-16T08:58:42.676Z,120.50
2022-11-16T08:59:42.597Z,123.40
2022-11-16T09:00:42.560Z,120.50
2022-11-16T09:01:42.509Z,121.40
2022-11-16T09:02:42.442Z,117.50
2022-11-16T09:03:42.380Z,114.00
2022-11-16T09:04:42.342Z,114.50
2022-11-16T09:05:42.271Z,118.70
2022-11-16T09:06:42.200Z,117.10
2022-11-16T09:07:42.140Z,112.10
2022-11-16T09:08:42.101Z,122.20
2022-11-16T09:09:42.022Z,107.20
2022-11-16T09:10:41.993Z,106.00
2022-11-16T09:11:41.911Z,110.60
2022-11-16T09:12:41.861Z,107.30
2022-11-16T09:13:41.810Z,123.50
2022-11-16T09:14:41.764Z,119.00
2022-11-16T09:15:41.722Z,108.90
2022-11-16T09:16:41.671Z,111.10
2022-11-16T09:17:41.593Z,113.90
2022-11-16T09:18:41.562Z,111.70
2022-11-16T09:19:41.483Z,116.10
2022-11-16T09:20:41.433Z,111.90
2022-11-16T09:21:41.390Z,124.00
2022-11-16T09:22:41.323Z,114.70
2022-11-16T09:23:41.264Z,114.50
2022-11-16T09:24:41.204Z,117.60
2022-11-16T09:25:41.149Z,102.30
2022-11-16T09:26:41.115Z,97.60
2022-11-16T09:27:41.044Z,116.10
2022-11-16T09:28:41.005Z,109.10
2022-11-16T09:29:40.923Z,107.40
2022-11-16T09:30:40.884Z,114.30
2022-11-16T09:31:40.816Z,99.00
2022-11-16T09:32:40.765Z,106.00
2022-11-16T09:33:40.697Z,118.20
2022-11-16T09:34:40.662Z,105.90
2022-11-16T09:35:40.583Z,117.40
2022-11-16T09:36:40.527Z,118.50
2022-11-16T09:37:40.487Z,113.00
2022-11-16T09:39:10.179Z,116.80
2022-11-16T09:39:41.367Z,120.90
2022-11-16T09:40:40.305Z,121.00
2022-11-16T09:41:40.237Z,113.40
2022-11-16T09:42:40.206Z,107.50
2022-11-16T09:43:45.573Z,109.10
2022-11-16T09:44:41.085Z,95.60
2022-11-16T09:45:40.017Z,107.50
2022-11-16T09:46:39.957Z,109.20
2022-11-16T09:47:39.898Z,110.70
2022-11-16T09:48:39.847Z,118.30
2022-11-16T09:49:39.768Z,105.90
2022-11-16T09:50:39.724Z,107.20
2022-11-16T09:51:39.667Z,115.30
2022-11-16T09:52:39.616Z,125.30
2022-11-16T09:53:39.528Z,110.70
2022-11-16T09:54:39.480Z,103.20
2022-11-16T09:55:39.420Z,109.40
2022-11-16T09:56:39.383Z,104.80
2022-11-16T09:57:39.319Z,94.70
2022-11-16T09:58:39.240Z,102.30
2022-11-16T09:59:39.180Z,111.90
2022-11-16T10:00:39.133Z,102.20
2022-11-16T10:01:39.056Z,99.60
2022-11-16T10:02:39.011Z,99.10
2022-11-16T10:03:38.932Z,108.70
2022-11-16T10:04:38.880Z,96.90
2022-11-16T10:05:38.811Z,104.90
2022-11-16T10:06:38.761Z,93.50
2022-11-16T10:07:38.741Z,87.30
2022-11-16T10:08:38.676Z,89.60
2022-11-16T10:09:38.582Z,95.20
2022-11-16T10:10:38.535Z,102.00
2022-11-16T10:11:38.452Z,83.90
2022-11-16T10:12:38.400Z,90.50
2022-11-16T10:13:38.344Z,94.60
2022-11-16T10:14:38.276Z,88.10
2022-11-16T10:15:38.206Z,87.60
2022-11-16T10:16:38.159Z,80.50
2022-11-16T10:17:38.084Z,78.20
2022-11-16T10:18:38.035Z,68.10
2022-11-16T10:19:38.007Z,75.60
2022-11-16T10:20:37.905Z,73.90
2022-11-16T10:21:37.857Z,78.80
2022-11-16T10:22:37.785Z,77.70
2022-11-16T10:23:37.717Z,67.90
2022-11-16T10:24:37.688Z,70.30
2022-11-16T10:25:37.591Z,71.20
2022-11-16T10:26:37.509Z,64.90
2022-11-16T10:27:37.441Z,69.60
2022-11-16T10:28:37.377Z,65.80
2022-11-16T10:29:37.306Z,76.90
2022-11-16T10:30:37.259Z,74.10
2022-11-16T10:31:37.183Z,75.50
2022-11-16T10:32:37.121Z,74.70
2022-11-16T10:33:37.293Z,72.90
2022-11-16T10:34:36.996Z,74.20
2022-11-16T10:35:36.950Z,66.10
2022-11-16T10:36:36.840Z,70.70
2022-11-16T10:37:36.788Z,68.70
2022-11-16T10:38:36.719Z,65.30
2022-11-16T10:39:36.651Z,66.80
2022-11-16T10:40:36.618Z,65.80
2022-11-16T10:41:36.516Z,72.40
2022-11-16T10:42:36.451Z,63.20
2022-11-16T10:43:36.694Z,66.60
2022-11-16T10:44:36.320Z,73.80
2022-11-16T10:45:36.248Z,71.20
2022-11-16T10:46:36.202Z,75.20
2022-11-16T10:47:36.108Z,72.10
2022-11-16T10:48:36.051Z,66.10
2022-11-16T10:49:35.982Z,61.30
2022-11-16T10:50:35.924Z,67.90
2022-11-16T10:51:35.861Z,69.20
2022-11-16T10:52:35.791Z,68.00
2022-11-16T10:53:35.988Z,66.80
2022-11-16T10:54:38.832Z,67.00
2022-11-16T10:55:36.562Z,70.80
2022-11-16T10:56:35.482Z,61.80
2022-11-16T10:57:35.415Z,59.40
2022-11-16T10:58:35.353Z,58.30
2022-11-16T10:59:35.270Z,66.00
2022-11-16T11:00:35.235Z,67.20
2022-11-16T11:01:35.124Z,62.60
2022-11-16T11:02:35.066Z,64.70
2022-11-16T11:03:35.405Z,59.60
2022-11-16T11:04:34.905Z,61.60
2022-11-16T11:05:34.846Z,56.40
2022-11-16T11:06:34.775Z,62.10
2022-11-16T11:07:34.728Z,62.40
2022-11-16T11:08:34.649Z,61.30
2022-11-16T11:09:34.599Z,67.40
2022-11-16T11:10:34.534Z,59.70
2022-11-16T11:11:34.449Z,55.30
2022-11-16T11:12:34.381Z,51.00
2022-11-16T11:13:34.510Z,56.60
2022-11-16T11:14:34.245Z,49.90
2022-11-16T11:15:34.167Z,49.30
2022-11-16T11:16:34.097Z,45.00
2022-11-16T11:17:34.030Z,84.80
2022-11-16T11:18:33.973Z,61.30
2022-11-16T11:19:33.918Z,58.20
2022-11-16T11:20:33.828Z,52.10
2022-11-16T11:21:33.761Z,53.20
2022-11-16T11:22:33.688Z,59.70
2022-11-16T11:23:33.997Z,58.80
2022-11-16T11:24:45.106Z,58.70
2022-11-16T11:25:34.505Z,57.60
2022-11-16T11:26:36.526Z,60.10
2022-11-16T11:27:33.339Z,61.80
2022-11-16T11:28:33.272Z,67.10
2022-11-16T11:29:33.201Z,59.20
2022-11-16T11:30:33.147Z,57.60
2022-11-16T11:31:33.050Z,60.40
2022-11-16T11:32:32.982Z,66.00
2022-11-16T11:33:33.377Z,65.10
2022-11-16T11:34:32.841Z,54.90
2022-11-16T11:35:32.794Z,46.40
2022-11-16T11:36:32.701Z,37.10
2022-11-16T11:37:32.629Z,37.40
2022-11-16T11:38:32.542Z,38.70
2022-11-16T11:39:32.519Z,37.50
2022-11-16T11:40:32.418Z,44.00
2022-11-16T11:41:32.331Z,50.50
2022-11-16T11:42:32.253Z,43.70
2022-11-16T11:43:32.541Z,42.40
2022-11-16T11:44:32.128Z,40.80
2022-11-16T11:45:32.063Z,37.10
2022-11-16T11:47:06.389Z,32.60
2022-11-16T11:47:56.849Z,37.10
2022-11-16T11:48:32.842Z,39.50
2022-11-16T11:49:33.798Z,37.50
2022-11-16T11:50:31.715Z,33.40
2022-11-16T11:51:31.643Z,38.20
2022-11-16T11:52:31.564Z,36.20
2022-11-16T11:53:31.770Z,42.50
2022-11-16T11:54:31.435Z,41.90
2022-11-16T11:55:31.385Z,39.50
2022-11-16T11:56:31.294Z,37.60
2022-11-16T11:57:31.228Z,35.80
2022-11-16T11:58:31.177Z,36.40
2022-11-16T11:59:31.093Z,33.60
2022-11-16T12:00:31.056Z,37.60
2022-11-16T12:01:30.955Z,37.60
2022-11-16T12:02:30.887Z,28.10
2022-11-16T12:03:30.839Z,31.70
2022-11-16T12:04:30.760Z,31.80
2022-11-16T12:05:30.667Z,36.20
2022-11-16T12:06:30.618Z,32.30
2022-11-16T12:07:30.566Z,33.30
2022-11-16T12:08:30.467Z,27.20
2022-11-16T12:09:30.413Z,24.90
2022-11-16T12:10:30.338Z,26.90
2022-11-16T12:11:30.280Z,26.10
2022-11-16T12:12:30.207Z,29.10
2022-11-16T12:13:30.159Z,22.20
2022-11-16T12:14:30.078Z,24.60
2022-11-16T12:15:30.011Z,26.00
2022-11-16T12:16:29.962Z,20.30
2022-11-16T12:17:29.880Z,19.20
2022-11-16T12:18:29.819Z,21.50
2022-11-16T12:19:29.749Z,19.80
2022-11-16T12:20:29.702Z,21.30
2022-11-16T12:21:29.655Z,21.00
2022-11-16T12:22:29.572Z,21.30
2022-11-16T12:23:29.514Z,19.60
2022-11-16T12:24:29.451Z,17.80
2022-11-16T12:25:29.372Z,20.50
2022-11-16T12:26:29.321Z,20.30
2022-11-16T12:27:29.287Z,18.40
2022-11-16T12:28:29.184Z,20.80
2022-11-16T12:29:29.123Z,18.00
2022-11-16T12:30:29.053Z,16.60
2022-11-16T12:31:28.992Z,17.70
2022-11-16T12:32:28.932Z,17.30
2022-11-16T12:33:28.842Z,14.50
2022-11-16T12:34:28.784Z,13.40
2022-11-16T12:35:28.722Z,15.70
2022-11-16T12:36:28.643Z,17.40
2022-11-16T12:37:28.575Z,18.20
2022-11-16T12:38:28.511Z,15.40
2022-11-16T12:39:28.440Z,19.70
2022-11-16T12:40:28.355Z,17.30
2022-11-16T12:41:28.287Z,16.10
2022-11-16T12:42:28.216Z,12.80